Time;durP1;ratioP1;P1;durP2;ratioP2;P2;SDS_P1;SDS_P2;PMS_P1;PMS_P2;Temp;Humidity;BMP_temperature;BMP_pressure;BME280_temperature;BME280_humidity;BME280_pressure;Samples;Min_cycle;Max_cycle;Signal;HPM_P1;HPM_P2
2023/06/08 00:01:31;;;;;;;;;17.25;15.50;;;;;22.42;42.91;101173.47;5016010;28;45929;-54
2023/06/08 00:03:56;;;;;;;;;15.00;14.50;;;;;22.39;43.08;101175.75;5015008;28;45527;-54
2023/06/08 00:06:33;;;;;;;;;15.50;12.50;;;;;22.37;42.69;101158.88;5016393;28;45391;-45
2023/06/08 00:08:59;;;;;;;;;20.25;16.25;;;;;22.26;43.08;101154.13;5016006;28;45510;-54
2023/06/08 00:11:25;;;;;;;;;15.50;15.00;;;;;22.31;43.41;101157.84;4998060;28;45406;-51
2023/06/08 00:13:50;;;;;;;;;23.33;21.00;;;;;22.30;42.25;101152.66;5015720;28;45871;-49
2023/06/08 00:16:18;;;;;;;;;18.25;16.00;;;;;22.26;43.08;101163.09;5015854;28;45493;-54
2023/06/08 00:18:44;;;;;;;;;13.50;13.00;;;;;22.23;43.35;101159.97;4998243;28;45314;-52
2023/06/08 00:21:12;;;;;;;;;16.50;13.25;;;;;22.20;43.03;101161.22;4997753;28;47296;-55
2023/06/08 00:23:38;;;;;;;;;16.25;13.75;;;;;22.18;43.71;101157.91;5015702;28;45331;-48
2023/06/08 00:26:03;;;;;;;;;17.50;17.50;;;;;22.14;43.87;101153.94;5015973;28;45393;-48
2023/06/08 00:28:29;;;;;;;;;20.75;17.25;;;;;22.08;44.36;101143.91;5015913;28;45431;-45
2023/06/08 00:30:54;;;;;;;;;14.75;14.00;;;;;21.88;44.10;101112.31;5017337;28;46282;-55
2023/06/08 00:33:20;;;;;;;;;18.25;14.75;;;;;22.04;44.27;101143.53;5019354;28;45368;-54
2023/06/08 00:35:45;;;;;;;;;21.00;16.00;;;;;22.02;44.48;101140.19;5019346;28;45376;-49
2023/06/08 00:38:11;;;;;;;;;14.50;12.50;;;;;22.01;44.92;101143.94;5019581;28;45379;-54
2023/06/08 00:40:36;;;;;;;;;17.50;16.00;;;;;21.99;44.62;101142.50;5019016;28;45949;-53
2023/06/08 00:43:01;;;;;;;;;14.25;14.00;;;;;21.99;44.94;101140.59;5018996;28;45326;-54
2023/06/08 00:45:27;;;;;;;;;14.75;14.75;;;;;21.97;44.86;101140.00;5018995;28;45443;-54
2023/06/08 00:47:52;;;;;;;;;23.00;19.00;;;;;21.95;44.71;101133.13;5019252;28;45429;-51
2023/06/08 00:50:17;;;;;;;;;16.25;15.50;;;;;21.85;44.79;101123.56;5018805;28;45655;-56
2023/06/08 00:52:44;;;;;;;;;20.00;17.50;;;;;21.74;45.18;101109.84;5018967;28;45299;-55
2023/06/08 00:55:09;;;;;;;;;17.00;15.00;;;;;21.81;45.62;101126.91;5019006;28;45452;-54
2023/06/08 00:57:36;;;;;;;;;16.75;16.25;;;;;21.81;45.61;101130.44;5019044;28;45320;-53
2023/06/08 01:00:05;;;;;;;;;19.33;17.33;;;;;21.77;45.97;101134.63;5018341;28;46054;-54
2023/06/08 01:02:31;;;;;;;;;16.25;15.25;;;;;21.73;45.68;101132.53;5018538;28;45371;-55
2023/06/08 01:04:57;;;;;;;;;24.75;18.00;;;;;21.70;45.56;101130.25;5000813;28;45419;-54
2023/06/08 01:07:49;;;;;;;;;19.00;18.00;;;;;21.69;45.65;101129.41;5018893;28;45378;-52
2023/06/08 01:10:46;;;;;;;;;16.25;15.25;;;;;21.66;46.32;101128.00;5018156;28;46380;-56
2023/06/08 01:13:29;;;;;;;;;16.50;16.50;;;;;21.66;45.90;101125.28;4976633;28;45851;-52
2023/06/08 01:16:03;;;;;;;;;18.00;17.50;;;;;21.62;46.19;101115.91;4976613;28;45319;-54
2023/06/08 01:18:38;;;;;;;;;18.67;16.67;;;;;21.65;45.75;101123.59;4977208;28;45268;-53
2023/06/08 01:21:24;;;;;;;;;17.67;16.33;;;;;21.63;45.87;101127.56;4976588;28;46169;-56
2023/06/08 01:24:14;;;;;;;;;17.75;14.00;;;;;21.61;45.97;101129.63;4976738;28;45316;-54
2023/06/08 01:26:41;;;;;;;;;16.33;16.00;;;;;21.56;46.15;101122.16;4976621;28;45472;-55
2023/06/08 01:29:08;;;;;;;;;20.67;17.00;;;;;21.49;46.06;101117.78;4976622;28;45429;-47
2023/06/08 01:31:33;;;;;;;;;18.00;18.00;;;;;21.56;46.69;101130.28;4976242;28;45402;-48
2023/06/08 01:33:59;;;;;;;;;18.00;15.67;;;;;21.51;46.87;101121.13;4976187;28;45323;-53
2023/06/08 01:36:36;;;;;;;;;20.00;17.00;;;;;21.52;46.58;101126.31;4976657;28;45359;-47
2023/06/08 01:39:46;;;;;;;;;19.25;17.00;;;;;21.51;46.49;101126.53;4976854;28;45448;-55
2023/06/08 01:42:14;;;;;;;;;19.33;16.00;;;;;21.51;46.74;101130.06;4958871;28;46754;-55
2023/06/08 01:45:18;;;;;;;;;20.00;18.00;;;;;21.51;46.64;101126.53;4976350;28;45548;-52
2023/06/08 01:47:56;;;;;;;;;21.00;18.33;;;;;21.48;46.83;101130.47;4978518;28;45374;-48
2023/06/08 01:50:23;;;;;;;;;18.67;17.00;;;;;21.42;47.03;101131.34;5000630;28;45522;-46
2023/06/08 01:52:48;;;;;;;;;19.33;18.00;;;;;21.44;47.07;101134.66;5018193;28;46406;-45
2023/06/08 01:55:18;;;;;;;;;20.00;18.33;;;;;21.43;46.82;101127.56;5018111;28;45357;-45
2023/06/08 01:57:44;;;;;;;;;19.00;19.00;;;;;21.29;47.42;101117.78;5018112;28;45277;-46
2023/06/08 02:00:11;;;;;;;;;20.33;19.67;;;;;21.38;47.42;101135.50;5018221;28;45317;-46
2023/06/08 02:02:37;;;;;;;;;21.33;18.00;;;;;21.34;47.25;101132.38;5017872;28;46382;-52
2023/06/08 02:05:03;;;;;;;;;19.67;18.00;;;;;21.30;47.18;101141.09;5018045;28;45864;-51
2023/06/08 02:07:29;;;;;;;;;18.33;18.00;;;;;21.28;47.76;101138.59;5000111;28;45337;-54
2023/06/08 02:09:54;;;;;;;;;21.00;17.00;;;;;21.20;48.20;101137.97;5017840;28;45389;-51
2023/06/08 02:12:20;;;;;;;;;20.00;18.00;;;;;21.20;47.92;101140.69;5017833;28;47161;-54
2023/06/08 02:14:46;;;;;;;;;24.33;18.00;;;;;21.20;48.09;101137.97;5017441;28;51169;-48
2023/06/08 02:17:13;;;;;;;;;22.00;19.67;;;;;21.17;48.06;101139.19;5017895;28;45412;-55
2023/06/08 02:19:39;;;;;;;;;19.33;19.00;;;;;21.17;47.85;101142.72;5017891;28;45411;-45
2023/06/08 02:22:04;;;;;;;;;26.33;21.33;;;;;21.15;48.08;101139.41;5017480;28;46237;-54
2023/06/08 02:24:30;;;;;;;;;19.00;16.33;;;;;21.14;48.37;101137.72;5017856;28;45255;-47
2023/06/08 02:26:55;;;;;;;;;22.67;20.67;;;;;21.13;48.61;101135.25;5017768;28;45303;-45
2023/06/08 02:29:21;;;;;;;;;21.67;18.33;;;;;21.12;48.61;101133.59;5017794;28;45217;-49
2023/06/08 02:31:46;;;;;;;;;19.00;17.67;;;;;21.11;48.84;101140.00;5016254;28;46101;-48
2023/06/08 02:34:11;;;;;;;;;24.00;21.00;;;;;21.10;48.75;101131.06;5017469;28;45397;-45
2023/06/08 02:36:39;;;;;;;;;19.33;18.33;;;;;21.05;48.98;101122.75;5017604;28;45334;-51
2023/06/08 02:39:05;;;;;;;;;16.33;15.33;;;;;21.08;49.14;101124.22;5016673;28;45530;-45
2023/06/08 02:41:30;;;;;;;;;19.67;19.00;;;;;21.07;49.09;101126.09;5017274;28;47040;-53
2023/06/08 02:43:56;;;;;;;;;22.33;21.00;;;;;21.00;49.03;101119.84;5017104;28;45359;-52
2023/06/08 02:46:21;;;;;;;;;25.00;20.33;;;;;21.05;48.90;101124.63;5017463;28;45445;-56
2023/06/08 02:48:46;;;;;;;;;19.67;19.00;;;;;21.03;49.67;101132.13;5016793;28;45612;-55
2023/06/08 02:51:12;;;;;;;;;22.67;19.33;;;;;20.99;49.51;101129.00;5016271;28;45432;-56
2023/06/08 02:53:37;;;;;;;;;21.00;21.00;;;;;20.96;49.47;101126.69;5016854;28;45371;-54
2023/06/08 02:56:03;;;;;;;;;24.67;22.33;;;;;20.95;49.74;101119.63;5016421;28;45370;-46
2023/06/08 02:58:31;;;;;;;;;32.33;27.67;;;;;20.89;49.63;101115.84;5017224;28;45536;-55
2023/06/08 03:00:59;;;;;;;;;27.00;26.67;;;;;20.88;49.70;101119.59;5016044;28;45390;-55
2023/06/08 03:03:29;;;;;;;;;30.00;25.67;;;;;20.86;49.74;101115.44;5016736;28;45457;-56
2023/06/08 03:05:58;;;;;;;;;35.00;31.00;;;;;20.83;49.66;101115.84;5016978;28;45465;-45
2023/06/08 03:08:25;;;;;;;;;29.67;26.00;;;;;20.71;49.84;101095.84;5016132;28;45369;-48
2023/06/08 03:10:50;;;;;;;;;30.67;25.33;;;;;20.80;49.68;101111.69;5016729;28;47329;-54
2023/06/08 03:13:16;;;;;;;;;27.33;24.33;;;;;20.77;49.61;101116.66;5016723;28;45367;-54
2023/06/08 03:15:43;;;;;;;;;26.33;22.00;;;;;20.78;50.09;101121.06;5016776;28;45437;-56
2023/06/08 03:18:09;;;;;;;;;29.00;24.00;;;;;20.75;50.21;101116.88;5016969;28;45599;-47
2023/06/08 03:20:34;;;;;;;;;25.67;23.67;;;;;20.73;49.81;101100.03;5016458;28;47188;-54
2023/06/08 03:23:00;;;;;;;;;27.00;22.33;;;;;20.73;49.90;101108.16;5016691;28;45524;-54
2023/06/08 03:25:25;;;;;;;;;22.67;21.67;;;;;20.72;50.18;101105.63;4998707;28;45264;-53
2023/06/08 03:27:51;;;;;;;;;24.67;21.00;;;;;20.65;50.49;101098.34;5016954;28;45562;-52
2023/06/08 03:30:16;;;;;;;;;26.00;20.00;;;;;20.68;50.37;101103.31;4998103;28;49544;-56
2023/06/08 03:32:48;;;;;;;;;26.00;22.00;;;;;20.68;50.66;101108.72;5016310;28;45358;-50
2023/06/08 03:35:15;;;;;;;;;28.00;25.67;;;;;20.66;50.86;101104.59;5016518;28;45354;-48
2023/06/08 03:37:40;;;;;;;;;24.67;24.00;;;;;20.67;50.72;101107.06;5016469;28;45404;-48
2023/06/08 03:40:06;;;;;;;;;30.00;23.67;;;;;20.68;50.84;101110.59;4998009;28;45455;-48
2023/06/08 03:42:32;;;;;;;;;25.00;24.00;;;;;20.68;50.51;101102.50;5016233;28;45463;-49
2023/06/08 03:44:57;;;;;;;;;27.33;25.33;;;;;20.70;50.96;101102.31;5015500;28;45362;-55
2023/06/08 03:47:23;;;;;;;;;25.67;23.67;;;;;20.72;50.65;101105.63;5016221;28;45401;-51
2023/06/08 03:49:48;;;;;;;;;25.33;23.67;;;;;20.70;50.51;101102.31;5016060;28;47012;-50
2023/06/08 03:52:14;;;;;;;;;25.67;25.00;;;;;20.69;50.54;101093.38;5016001;28;45395;-54
2023/06/08 03:54:39;;;;;;;;;31.67;25.67;;;;;20.70;50.32;101102.31;5016092;28;45429;-52
2023/06/08 03:57:05;;;;;;;;;26.00;24.00;;;;;20.67;50.33;101104.38;5016391;28;45446;-54
2023/06/08 03:59:31;;;;;;;;;26.33;22.33;;;;;20.67;50.92;101103.53;5015857;28;46029;-48
2023/06/08 04:01:56;;;;;;;;;44.00;37.00;;;;;20.67;50.22;101100.84;5015844;28;45482;-46
2023/06/08 04:04:23;;;;;;;;;35.67;31.00;;;;;20.60;50.19;101091.88;5015469;28;45710;-46
2023/06/08 04:06:49;;;;;;;;;34.33;31.00;;;;;20.63;50.26;101105.00;5017023;28;45377;-45
2023/06/08 04:09:14;;;;;;;;;22.33;22.00;;;;;20.59;50.20;101106.44;5016103;28;45688;-43
2023/06/08 04:11:40;;;;;;;;;29.33;23.00;;;;;20.52;49.98;101092.91;5016055;28;45256;-45
2023/06/08 04:14:06;;;;;;;;;27.33;23.67;;;;;20.54;50.54;101095.41;5016058;28;45274;-55
2023/06/08 04:16:31;;;;;;;;;23.00;21.33;;;;;20.52;50.43;101095.63;5015890;28;45251;-50
2023/06/08 04:18:56;;;;;;;;;27.67;25.67;;;;;20.52;50.63;101098.31;5015711;28;50151;-55
2023/06/08 04:21:25;;;;;;;;;23.00;22.00;;;;;20.51;50.40;101093.09;5016188;28;45298;-44
2023/06/08 04:23:50;;;;;;;;;28.00;25.00;;;;;20.50;50.55;101097.66;5015805;28;45405;-44
2023/06/08 04:26:16;;;;;;;;;27.33;25.67;;;;;20.50;50.84;101089.56;5016419;28;45394;-46
2023/06/08 04:28:41;;;;;;;;;24.67;23.00;;;;;20.46;50.34;101092.84;5015567;28;46396;-55
2023/06/08 04:31:07;;;;;;;;;25.33;23.33;;;;;20.46;51.07;101090.97;5015478;28;45336;-50
2023/06/08 04:33:32;;;;;;;;;27.00;22.33;;;;;20.45;50.70;101094.72;5015590;28;45545;-50
2023/06/08 04:35:58;;;;;;;;;27.33;22.67;;;;;20.42;50.56;101084.31;5016047;28;45283;-52
2023/06/08 04:38:25;;;;;;;;;24.00;23.67;;;;;20.42;50.96;101084.31;5015489;28;46135;-45
2023/06/08 04:40:53;;;;;;;;;20.33;20.33;;;;;20.45;50.66;101089.31;5015634;28;45434;-53
2023/06/08 04:43:20;;;;;;;;;26.67;21.00;;;;;20.48;50.67;101093.47;5015583;28;45442;-51
2023/06/08 04:45:49;;;;;;;;;29.00;26.67;;;;;20.47;50.98;101095.34;5015580;28;45388;-57
2023/06/08 04:48:15;;;;;;;;;27.33;24.00;;;;;20.48;51.02;101096.16;5015269;28;47322;-53
2023/06/08 04:50:45;;;;;;;;;25.00;22.67;;;;;20.43;50.91;101091.38;5015212;28;45509;-51
2023/06/08 04:53:11;;;;;;;;;26.33;24.00;;;;;20.42;51.14;101092.41;5015504;28;45410;-46
2023/06/08 04:55:37;;;;;;;;;28.00;25.33;;;;;20.46;50.91;101098.25;5015770;28;45371;-45
2023/06/08 04:58:02;;;;;;;;;27.67;25.33;;;;;20.43;50.61;101097.59;5015083;28;45692;-44
2023/06/08 05:00:27;;;;;;;;;26.00;26.00;;;;;20.44;51.16;101099.28;5015376;28;46264;-47
2023/06/08 05:02:53;;;;;;;;;29.00;26.67;;;;;20.44;51.39;101090.38;5015041;28;46604;-52
2023/06/08 05:05:18;;;;;;;;;30.00;26.67;;;;;20.41;51.42;101083.47;5015676;28;45477;-54
2023/06/08 05:07:43;;;;;;;;;31.67;27.67;;;;;20.41;51.63;101090.75;5014940;28;46814;-45
2023/06/08 05:10:09;;;;;;;;;32.00;28.00;;;;;20.39;51.73;101107.19;5014887;28;45361;-55
2023/06/08 05:12:34;;;;;;;;;28.67;27.00;;;;;20.38;51.64;101097.38;5015206;28;45328;-54
2023/06/08 05:15:02;;;;;;;;;29.33;28.33;;;;;20.38;51.90;101100.09;5015502;28;45172;-47
2023/06/08 05:17:28;;;;;;;;;25.33;25.33;;;;;20.37;51.98;101105.72;5016738;28;46850;-54
2023/06/08 05:19:53;;;;;;;;;32.00;27.67;;;;;20.37;52.12;101103.00;5018349;28;45370;-45
2023/06/08 05:22:18;;;;;;;;;30.33;28.67;;;;;20.37;51.86;101103.84;5018242;28;45453;-48
2023/06/08 05:24:43;;;;;;;;;30.33;25.67;;;;;20.37;52.27;101098.44;5018784;28;45361;-51
2023/06/08 05:27:09;;;;;;;;;30.67;27.33;;;;;20.36;52.22;101094.06;5018018;28;51993;-53
2023/06/08 05:29:35;;;;;;;;;31.33;27.00;;;;;20.37;52.17;101101.13;5018140;28;45318;-56
2023/06/08 05:32:00;;;;;;;;;35.00;28.33;;;;;20.37;52.47;101097.59;5018404;28;45478;-55
2023/06/08 05:34:26;;;;;;;;;34.33;28.33;;;;;20.29;52.36;101087.81;5018365;28;45430;-50
2023/06/08 05:36:53;;;;;;;;;31.00;27.33;;;;;20.40;52.59;101100.75;5018330;28;46315;-54
2023/06/08 05:39:18;;;;;;;;;37.00;31.00;;;;;20.43;52.36;101094.91;5018484;28;45425;-53
2023/06/08 05:41:43;;;;;;;;;34.67;28.67;;;;;20.44;52.64;101090.38;5018141;28;45343;-54
2023/06/08 05:44:09;;;;;;;;;32.33;29.67;;;;;20.48;52.34;101086.25;5018644;28;45300;-51
2023/06/08 05:46:34;;;;;;;;;30.67;29.00;;;;;20.51;52.92;101088.53;5018115;28;46148;-52
2023/06/08 05:48:59;;;;;;;;;35.67;29.00;;;;;20.48;52.90;101075.44;5017894;28;45322;-51
2023/06/08 05:51:25;;;;;;;;;37.33;31.67;;;;;20.58;52.36;101083.97;5000401;28;45204;-53
2023/06/08 05:53:50;;;;;;;;;38.00;27.67;;;;;20.61;52.77;101083.56;5018493;28;45319;-44
2023/06/08 05:56:15;;;;;;;;;35.33;30.00;;;;;20.68;52.42;101087.09;5018066;28;45377;-51
2023/06/08 05:58:41;;;;;;;;;34.67;30.33;;;;;20.32;52.76;101016.34;5017984;28;45382;-46
2023/06/08 06:01:07;;;;;;;;;35.33;31.67;;;;;20.76;53.26;101079.84;5018232;28;45179;-48
2023/06/08 06:03:32;;;;;;;;;37.67;31.00;;;;;20.76;52.73;101079.84;5017992;28;45356;-54
2023/06/08 06:05:58;;;;;;;;;34.67;30.00;;;;;20.83;52.75;101084.25;5017911;28;45284;-44
2023/06/08 06:08:25;;;;;;;;;39.00;32.00;;;;;20.88;53.23;101086.31;5018020;28;45912;-48
2023/06/08 06:10:50;;;;;;;;;39.00;31.33;;;;;20.94;52.83;101077.38;5017921;28;45447;-54
2023/06/08 06:13:15;;;;;;;;;38.67;34.00;;;;;21.00;52.99;101076.56;5018031;28;45383;-49
2023/06/08 06:15:41;;;;;;;;;41.00;32.67;;;;;21.04;52.76;101072.41;5017211;28;45528;-42
2023/06/08 06:18:06;;;;;;;;;39.33;33.00;;;;;21.06;52.90;101064.06;5017575;28;45271;-50
2023/06/08 06:20:31;;;;;;;;;36.67;33.33;;;;;21.18;52.61;101079.47;5022532;28;45410;-46
2023/06/08 06:22:57;;;;;;;;;40.67;33.67;;;;;21.15;52.52;101060.97;5017555;28;45479;-54
2023/06/08 06:25:22;;;;;;;;;38.00;31.00;;;;;21.34;52.82;101077.41;5017477;28;45350;-45
2023/06/08 06:27:48;;;;;;;;;39.67;35.33;;;;;21.38;52.88;101084.06;5016729;28;45339;-43
2023/06/08 06:30:14;;;;;;;;;38.00;33.33;;;;;21.46;52.56;101075.75;5017440;28;45386;-43
2023/06/08 06:32:39;;;;;;;;;38.67;33.33;;;;;21.67;52.39;101072.78;5017533;28;45420;-43
2023/06/08 06:35:05;;;;;;;;;38.33;34.00;;;;;23.04;50.30;101073.38;5016303;28;46071;-45
2023/06/08 06:37:34;;;;;;;;;39.67;33.00;;;;;24.39;47.46;101068.00;5019956;28;45785;-44
2023/06/08 06:40:01;;;;;;;;;37.33;32.33;;;;;25.70;45.08;101065.25;5010912;28;45896;-44
2023/06/08 06:42:26;;;;;;;;;39.33;32.00;;;;;26.84;42.34;101054.47;5013045;28;45552;-48
2023/06/08 06:44:51;;;;;;;;;44.67;34.33;;;;;27.78;40.99;101055.66;5008891;28;48260;-50
2023/06/08 06:47:17;;;;;;;;;36.00;32.00;;;;;28.59;39.02;101058.50;5012496;28;45500;-45
2023/06/08 06:49:42;;;;;;;;;36.67;33.00;;;;;29.13;37.66;101061.19;5030167;28;45559;-44
2023/06/08 06:52:07;;;;;;;;;38.67;33.00;;;;;29.61;37.15;101059.34;5013880;28;45386;-54
2023/06/08 06:54:33;;;;;;;;;44.50;34.00;;;;;30.11;36.10;101051.59;5023862;28;46007;-44
2023/06/08 06:56:58;;;;;;;;;36.75;31.00;;;;;30.54;35.41;101047.59;5028945;28;45747;-51
2023/06/08 06:59:23;;;;;;;;;40.25;32.75;;;;;31.00;34.94;101045.72;5030304;28;45947;-54
2023/06/08 07:01:49;;;;;;;;;40.75;33.50;;;;;31.30;33.71;101039.38;5028332;28;46414;-45
2023/06/08 07:04:17;;;;;;;;;37.00;31.50;;;;;31.65;33.60;101045.91;5011597;28;45596;-43
2023/06/08 07:06:43;;;;;;;;;36.00;33.50;;;;;32.07;33.05;101052.06;5012562;28;45454;-51
2023/06/08 07:09:09;;;;;;;;;35.50;32.25;;;;;32.44;32.91;101051.59;5011636;28;46349;-43
2023/06/08 07:11:35;;;;;;;;;53.50;43.00;;;;;32.77;31.81;101048.06;5012134;28;45505;-54
2023/06/08 07:14:00;;;;;;;;;37.00;31.75;;;;;33.04;31.72;101046.78;5015737;28;45853;-55
2023/06/08 07:16:26;;;;;;;;;36.25;31.75;;;;;33.37;30.93;101049.72;5023649;28;46496;-48
2023/06/08 07:18:51;;;;;;;;;33.75;30.25;;;;;33.68;30.58;101048.31;5002662;28;46411;-53
2023/06/08 07:21:19;;;;;;;;;38.00;30.75;;;;;33.98;30.23;101047.13;5017218;28;45456;-44
2023/06/08 07:23:45;;;;;;;;;33.80;31.00;;;;;34.22;30.31;101047.09;5026809;28;46296;-52
2023/06/08 07:26:11;;;;;;;;;32.50;30.25;;;;;34.43;29.65;101047.59;5029609;28;47095;-55
2023/06/08 07:28:37;;;;;;;;;34.20;30.00;;;;;34.71;29.26;101040.25;5028715;28;45436;-45
2023/06/08 07:31:03;;;;;;;;;31.75;30.75;;;;;34.95;28.62;101042.09;5028733;28;45581;-54
2023/06/08 07:33:28;;;;;;;;;34.80;31.80;;;;;34.91;28.71;101028.06;5024273;28;46023;-47
2023/06/08 07:35:54;;;;;;;;;36.00;30.00;;;;;35.21;28.68;101031.41;5020863;28;46285;-42
2023/06/08 07:38:19;;;;;;;;;41.75;32.00;;;;;35.58;27.96;101040.69;5029664;28;45444;-47
2023/06/08 07:40:46;;;;;;;;;30.50;29.50;;;;;35.82;27.62;101035.75;5016127;28;45481;-46
2023/06/08 07:43:11;;;;;;;;;35.40;31.40;;;;;35.84;27.71;101036.25;5009364;28;46029;-47
2023/06/08 07:45:37;;;;;;;;;39.00;32.25;;;;;36.04;27.72;101035.03;5011421;28;45700;-43
2023/06/08 07:48:02;;;;;;;;;37.75;31.50;;;;;36.34;27.07;101033.50;5017959;28;45541;-43
2023/06/08 07:50:27;;;;;;;;;37.25;32.25;;;;;36.53;26.73;101032.53;5012059;28;45477;-53
2023/06/08 07:52:53;;;;;;;;;39.25;33.50;;;;;36.79;26.66;101032.69;5029171;28;45553;-51
2023/06/08 07:55:18;;;;;;;;;32.00;29.75;;;;;36.96;26.45;101033.69;5028937;28;45421;-45
2023/06/08 07:57:44;;;;;;;;;29.25;26.00;;;;;37.26;26.12;101035.94;5021446;28;45778;-44
2023/06/08 08:00:10;;;;;;;;;34.75;27.25;;;;;37.53;26.08;101032.16;5010559;28;46000;-50
2023/06/08 08:02:35;;;;;;;;;29.00;26.00;;;;;37.80;25.15;101033.84;5010439;28;46096;-46
2023/06/08 08:05:01;;;;;;;;;30.00;27.00;;;;;37.93;24.70;101021.84;5017397;28;45593;-53
2023/06/08 08:07:26;;;;;;;;;30.50;28.50;;;;;38.06;25.82;101034.75;5018314;28;45614;-52
2023/06/08 08:09:51;;;;;;;;;29.25;28.50;;;;;38.28;24.40;101030.19;5026842;28;45546;-53
2023/06/08 08:12:17;;;;;;;;;27.00;26.25;;;;;38.42;24.50;101030.84;5026446;28;46380;-48
2023/06/08 08:14:42;;;;;;;;;27.00;26.25;;;;;38.76;24.75;101029.19;5017022;28;45471;-44
2023/06/08 08:17:07;;;;;;;;;48.00;41.50;;;;;38.99;24.10;101015.91;5010911;28;45439;-50
2023/06/08 08:19:33;;;;;;;;;53.00;43.75;;;;;39.19;23.71;101017.97;5010929;28;45600;-45
2023/06/08 08:21:58;;;;;;;;;48.75;39.50;;;;;39.37;23.98;101025.13;5011220;28;46010;-53
2023/06/08 08:24:24;;;;;;;;;30.50;28.75;;;;;39.49;24.00;101018.84;5020366;28;45492;-52
2023/06/08 08:26:53;;;;;;;;;31.00;27.00;;;;;39.70;23.60;101021.69;5011676;28;45495;-46
2023/06/08 08:29:19;;;;;;;;;28.80;26.20;;;;;39.88;23.23;101009.28;5020897;28;45547;-54
2023/06/08 08:31:44;;;;;;;;;61.25;46.50;;;;;39.97;23.62;101019.53;5010525;28;45502;-53
2023/06/08 08:34:11;;;;;;;;;35.50;31.25;;;;;39.89;23.24;101018.44;5024693;28;45389;-50
2023/06/08 08:36:37;;;;;;;;;32.20;29.20;;;;;39.89;23.69;101013.69;5028603;28;45902;-50
2023/06/08 08:39:03;;;;;;;;;33.75;28.25;;;;;39.78;23.13;101011.63;5017111;28;45686;-45
2023/06/08 08:41:31;;;;;;;;;22.50;21.50;;;;;39.82;23.39;101001.44;5028752;28;46108;-45
2023/06/08 08:44:08;;;;;;;;;62.60;48.40;;;;;39.88;23.24;101003.72;5015526;28;45528;-49
2023/06/08 08:46:34;;;;;;;;;31.40;28.80;;;;;39.99;23.14;100997.72;5010902;28;45809;-46
2023/06/08 08:49:04;;;;;;;;;28.20;26.80;;;;;40.07;23.24;101005.19;5029039;28;45516;-46
2023/06/08 08:51:32;;;;;;;;;29.80;25.20;;;;;40.23;22.80;101003.44;5030073;28;45592;-54
2023/06/08 08:54:00;;;;;;;;;31.40;25.60;;;;;40.24;22.70;100998.69;5031460;28;45894;-54
2023/06/08 08:56:26;;;;;;;;;29.00;25.40;;;;;40.22;22.84;101001.81;5026549;28;45684;-52
2023/06/08 08:58:52;;;;;;;;;26.50;24.00;;;;;40.14;22.89;100994.34;5032027;28;45916;-54
2023/06/08 09:01:19;;;;;;;;;27.80;25.00;;;;;40.17;23.08;100996.47;5027024;28;45887;-49
2023/06/08 09:03:46;;;;;;;;;24.60;22.80;;;;;40.12;22.86;100991.09;5014257;28;45674;-54
2023/06/08 09:06:11;;;;;;;;;24.20;20.80;;;;;40.29;22.78;100999.31;5018435;28;45757;-54
2023/06/08 09:08:37;;;;;;;;;24.00;22.75;;;;;40.30;22.58;100991.75;5023113;28;45808;-54
2023/06/08 09:11:09;;;;;;;;;25.25;24.50;;;;;40.03;23.00;100968.84;5031395;28;46762;-55
2023/06/08 09:13:35;;;;;;;;;25.80;24.80;;;;;40.07;22.65;100982.91;5031696;28;45547;-46
2023/06/08 09:16:19;;;;;;;;;28.40;25.00;;;;;39.97;23.19;100986.13;5012618;28;45963;-46
2023/06/08 09:18:46;;;;;;;;;22.80;21.20;;;;;40.00;23.06;100985.44;5022575;28;46120;-48
2023/06/08 09:21:27;;;;;;;;;26.00;23.00;;;;;39.87;23.06;100977.00;5023604;28;45583;-47
2023/06/08 09:24:11;;;;;;;;;26.40;24.60;;;;;39.71;23.40;100984.34;5026791;28;45498;-52
2023/06/08 09:26:37;;;;;;;;;28.00;23.00;;;;;39.44;23.25;100971.69;5013858;28;45461;-55
2023/06/08 09:29:04;;;;;;;;;22.40;22.40;;;;;39.35;23.37;100982.06;5004587;28;46349;-43
2023/06/08 09:31:30;;;;;;;;;24.20;20.20;;;;;39.14;23.47;100981.97;5013067;28;45494;-44
2023/06/08 09:34:05;;;;;;;;;25.60;24.40;;;;;39.09;23.42;100979.38;5019547;28;45557;-52
2023/06/08 09:36:35;;;;;;;;;26.60;24.40;;;;;39.13;23.61;100981.16;5029486;28;45876;-48
2023/06/08 09:39:03;;;;;;;;;23.00;22.60;;;;;39.04;23.90;100977.59;5028635;28;46223;-46
2023/06/08 09:41:28;;;;;;;;;26.80;25.80;;;;;38.66;23.41;100961.66;5036198;28;47297;-48
2023/06/08 09:43:54;;;;;;;;;21.75;21.75;;;;;38.62;23.78;100971.00;5038099;28;45778;-45
2023/06/08 09:46:32;;;;;;;;;24.50;24.00;;;;;38.46;24.51;100978.22;5038321;28;45346;-43
2023/06/08 09:48:58;;;;;;;;;26.40;24.60;;;;;38.35;24.21;100970.22;5038354;28;45353;-56
2023/06/08 09:51:24;;;;;;;;;25.50;21.75;;;;;38.27;24.27;100971.03;5037868;28;47052;-49
2023/06/08 09:53:55;;;;;;;;;29.80;24.80;;;;;38.09;24.62;100970.19;5037936;28;45273;-54
2023/06/08 09:56:22;;;;;;;;;24.40;23.40;;;;;37.99;25.05;100973.31;5038285;28;45468;-55
2023/06/08 09:58:51;;;;;;;;;20.60;20.20;;;;;37.77;25.50;100962.31;5038268;28;45758;-52
2023/06/08 10:01:21;;;;;;;;;25.80;24.00;;;;;37.66;25.33;100967.38;5037567;28;46507;-44
2023/06/08 10:03:50;;;;;;;;;19.80;19.40;;;;;37.54;25.08;100958.84;5036962;28;45490;-47
2023/06/08 10:06:16;;;;;;;;;25.00;23.20;;;;;37.56;25.73;100967.69;5037084;28;45581;-49
2023/06/08 10:08:45;;;;;;;;;24.00;23.20;;;;;37.53;25.51;100960.00;5038153;28;45416;-55
2023/06/08 10:11:13;;;;;;;;;23.40;23.40;;;;;37.47;25.29;100966.84;5037413;28;46299;-52
2023/06/08 10:13:39;;;;;;;;;20.20;18.20;;;;;37.34;24.96;100954.72;5037640;28;45398;-47
2023/06/08 10:16:05;;;;;;;;;25.40;22.80;;;;;37.27;24.85;100960.72;5037876;28;45762;-53
2023/06/08 10:18:31;;;;;;;;;22.80;19.20;;;;;37.11;24.58;100945.63;5037882;28;45448;-47
2023/06/08 10:20:58;;;;;;;;;21.20;19.80;;;;;36.93;25.03;100951.13;5037282;28;46891;-44
2023/06/08 10:23:24;;;;;;;;;23.40;23.40;;;;;36.69;25.59;100951.44;5037731;28;45655;-51
2023/06/08 10:25:50;;;;;;;;;18.80;18.40;;;;;36.47;25.81;100960.63;5036782;28;45377;-52
2023/06/08 10:28:20;;;;;;;;;22.40;21.40;;;;;36.32;25.94;100947.09;5037549;28;45383;-53
2023/06/08 10:30:45;;;;;;;;;21.00;18.00;;;;;36.15;25.26;100953.34;5036990;28;46528;-52
2023/06/08 10:33:21;;;;;;;;;19.00;18.00;;;;;35.98;25.67;100951.25;5037585;28;45233;-56
2023/06/08 10:36:11;;;;;;;;;24.00;21.00;;;;;35.77;25.67;100947.28;5037228;28;45433;-48
2023/06/08 10:38:57;;;;;;;;;20.80;19.40;;;;;35.64;26.15;100934.28;5037562;28;45368;-56
2023/06/08 10:41:43;;;;;;;;;19.00;18.20;;;;;35.69;26.46;100923.09;5037409;28;47004;-55
2023/06/08 10:44:29;;;;;;;;;21.80;19.60;;;;;35.49;26.36;100932.69;5037406;28;45399;-52
2023/06/08 10:46:57;;;;;;;;;21.80;21.80;;;;;35.13;25.96;100936.16;5036556;28;45384;-57
2023/06/08 10:49:22;;;;;;;;;19.00;18.80;;;;;34.80;25.62;100917.97;5037301;28;45319;-54
2023/06/08 10:51:54;;;;;;;;;20.50;19.75;;;;;34.48;26.68;100925.19;5036912;28;46205;-54
2023/06/08 10:54:23;;;;;;;;;23.00;21.00;;;;;34.17;26.63;100924.84;5036922;28;45251;-54
2023/06/08 10:56:52;;;;;;;;;21.80;19.40;;;;;33.66;26.67;100925.56;5036977;28;45395;-55
2023/06/08 10:59:22;;;;;;;;;20.60;20.60;;;;;33.30;27.37;100917.75;5037187;28;45443;-55
2023/06/08 11:01:48;;;;;;;;;19.20;17.80;;;;;32.84;27.71;100920.19;5035738;28;45453;-55
2023/06/08 11:04:14;;;;;;;;;19.80;19.80;;;;;32.41;28.84;100920.03;5036691;28;45343;-51
2023/06/08 11:06:40;;;;;;;;;22.00;22.00;;;;;32.14;29.37;100914.97;5036742;28;45389;-48
2023/06/08 11:09:06;;;;;;;;;22.20;21.80;;;;;31.88;28.57;100909.66;5036039;28;45497;-53
2023/06/08 11:11:31;;;;;;;;;19.75;19.25;;;;;31.57;28.85;100908.19;5036675;28;47066;-50